createdAt,value
2018-04-16T00:00:57.995Z,948.5
2018-04-16T00:01:57.988Z,948.5
2018-04-16T00:02:57.979Z,948.48
2018-04-16T00:03:57.970Z,948.47
2018-04-16T00:04:57.983Z,948.45
2018-04-16T00:05:57.966Z,948.45
2018-04-16T00:06:57.949Z,948.48
2018-04-16T00:07:57.939Z,948.47
2018-04-16T00:08:57.935Z,948.46
2018-04-16T00:09:57.923Z,948.46
2018-04-16T00:10:57.915Z,948.47
2018-04-16T00:11:57.908Z,948.5
2018-04-16T00:12:57.900Z,948.47
2018-04-16T00:13:57.890Z,948.48
2018-04-16T00:14:57.883Z,948.49
2018-04-16T00:15:57.875Z,948.54
2018-04-16T00:16:57.867Z,948.46
2018-04-16T00:17:57.860Z,948.46
2018-04-16T00:18:57.852Z,948.46
2018-04-16T00:19:57.843Z,948.44
2018-04-16T00:20:57.836Z,948.43
2018-04-16T00:21:57.828Z,948.41
2018-04-16T00:22:57.820Z,948.39
2018-04-16T00:23:57.816Z,948.45
2018-04-16T00:24:57.804Z,948.49
2018-04-16T00:25:57.796Z,948.49
2018-04-16T00:26:57.787Z,948.49
2018-04-16T00:27:57.779Z,948.5
2018-04-16T00:28:57.771Z,948.52
2018-04-16T00:29:57.764Z,948.45
2018-04-16T00:30:57.758Z,948.5
2018-04-16T00:31:57.746Z,948.44
2018-04-16T00:32:57.740Z,948.43
2018-04-16T00:33:57.732Z,948.41
2018-04-16T00:34:57.722Z,948.43
2018-04-16T00:35:57.716Z,948.46
2018-04-16T00:36:57.715Z,948.5
2018-04-16T00:37:57.719Z,948.47
2018-04-16T00:38:57.691Z,948.5
2018-04-16T00:39:57.685Z,948.54
2018-04-16T00:40:57.675Z,948.55
2018-04-16T00:41:57.666Z,948.58
2018-04-16T00:42:57.663Z,948.59
2018-04-16T00:43:57.652Z,948.54
2018-04-16T00:44:57.645Z,948.55
2018-04-16T00:45:57.636Z,948.58
2018-04-16T00:46:57.627Z,948.58
2018-04-16T00:47:57.619Z,948.59
2018-04-16T00:48:57.611Z,948.59
2018-04-16T00:49:57.603Z,948.61
2018-04-16T00:50:57.596Z,948.6
2018-04-16T00:51:57.587Z,948.64
2018-04-16T00:52:57.580Z,948.63
2018-04-16T00:53:57.571Z,948.6
2018-04-16T00:54:57.564Z,948.66
2018-04-16T00:55:57.555Z,948.68
2018-04-16T00:56:57.546Z,948.72
2018-04-16T00:57:57.538Z,948.75
2018-04-16T00:58:57.532Z,948.77
2018-04-16T00:59:57.523Z,948.82
2018-04-16T01:00:57.524Z,948.83
2018-04-16T01:01:57.509Z,948.85
2018-04-16T01:02:57.500Z,948.81
2018-04-16T01:03:57.491Z,948.88
2018-04-16T01:04:57.489Z,948.85
2018-04-16T01:05:57.474Z,948.84
2018-04-16T01:06:57.470Z,948.85
2018-04-16T01:07:57.459Z,948.85
2018-04-16T01:08:57.449Z,948.87
2018-04-16T01:09:57.442Z,948.86
2018-04-16T01:10:57.435Z,948.87
2018-04-16T01:11:57.426Z,948.82
2018-04-16T01:12:57.417Z,948.86
2018-04-16T01:13:57.410Z,948.9
2018-04-16T01:14:57.402Z,948.84
2018-04-16T01:15:57.394Z,948.86
2018-04-16T01:16:57.388Z,948.86
2018-04-16T01:17:57.379Z,948.83
2018-04-16T01:18:57.370Z,948.82
2018-04-16T01:19:57.363Z,948.82
2018-04-16T01:20:57.354Z,948.78
2018-04-16T01:21:57.347Z,948.76
2018-04-16T01:22:57.338Z,948.79
2018-04-16T01:23:57.331Z,948.71
2018-04-16T01:24:57.324Z,948.72
2018-04-16T01:25:57.314Z,948.72
2018-04-16T01:26:57.307Z,948.76
2018-04-16T01:27:57.301Z,948.7
2018-04-16T01:28:57.292Z,948.74
2018-04-16T01:29:57.286Z,948.77
2018-04-16T01:30:57.276Z,948.74
2018-04-16T01:31:57.269Z,948.7
2018-04-16T01:32:57.259Z,948.69
2018-04-16T01:33:57.251Z,948.67
2018-04-16T01:34:57.243Z,948.66
2018-04-16T01:35:57.235Z,948.66
2018-04-16T01:36:57.226Z,948.64
2018-04-16T01:37:57.219Z,948.69
2018-04-16T01:38:57.211Z,948.65
2018-04-16T01:39:57.203Z,948.64
2018-04-16T01:40:57.194Z,948.67
2018-04-16T01:41:57.188Z,948.65
2018-04-16T01:42:57.180Z,948.64
2018-04-16T01:43:57.173Z,948.69
2018-04-16T01:44:57.164Z,948.66
2018-04-16T01:45:57.158Z,948.72
2018-04-16T01:46:57.147Z,948.69
2018-04-16T01:47:57.138Z,948.65
2018-04-16T01:48:57.129Z,948.67
2018-04-16T01:49:57.122Z,948.65
2018-04-16T01:50:57.114Z,948.63
2018-04-16T01:51:57.107Z,948.64
2018-04-16T01:52:57.100Z,948.59
2018-04-16T01:53:57.147Z,948.6
2018-04-16T01:54:57.081Z,948.55
2018-04-16T01:55:57.077Z,948.58
2018-04-16T01:56:57.071Z,948.57
2018-04-16T01:57:57.057Z,948.56
2018-04-16T01:58:57.048Z,948.56
2018-04-16T01:59:57.079Z,948.53
2018-04-16T02:00:57.035Z,948.51
2018-04-16T02:01:57.025Z,948.47
2018-04-16T02:02:57.039Z,948.47
2018-04-16T02:03:57.011Z,948.46
2018-04-16T02:04:56.999Z,948.48
2018-04-16T02:05:56.991Z,948.48
2018-04-16T02:06:56.982Z,948.49
2018-04-16T02:07:56.976Z,948.44
2018-04-16T02:08:56.967Z,948.48
2018-04-16T02:09:56.958Z,948.52
2018-04-16T02:10:56.951Z,948.46
2018-04-16T02:11:56.943Z,948.47
2018-04-16T02:12:56.937Z,948.45
2018-04-16T02:13:56.937Z,948.44
2018-04-16T02:14:56.917Z,948.48
2018-04-16T02:15:56.910Z,948.49
2018-04-16T02:16:56.901Z,948.5
2018-04-16T02:17:56.892Z,948.44
2018-04-16T02:18:56.884Z,948.54
2018-04-16T02:19:56.876Z,948.51
2018-04-16T02:20:56.875Z,948.53
2018-04-16T02:21:56.860Z,948.54
2018-04-16T02:22:56.852Z,948.58
2018-04-16T02:23:56.843Z,948.61
2018-04-16T02:24:56.834Z,948.63
2018-04-16T02:25:56.827Z,948.61
2018-04-16T02:26:56.823Z,948.62
2018-04-16T02:27:56.811Z,948.63
2018-04-16T02:28:56.802Z,948.69
2018-04-16T02:29:56.793Z,948.67
2018-04-16T02:30:56.787Z,948.67
2018-04-16T02:31:56.776Z,948.65
2018-04-16T02:32:56.770Z,948.65
2018-04-16T02:33:56.763Z,948.62
2018-04-16T02:34:56.754Z,948.6
2018-04-16T02:35:56.745Z,948.6
2018-04-16T02:36:56.741Z,948.63
2018-04-16T02:37:56.728Z,948.63
2018-04-16T02:38:56.721Z,948.65
2018-04-16T02:39:56.711Z,948.69
2018-04-16T02:40:56.704Z,948.72
2018-04-16T02:41:56.696Z,948.75
2018-04-16T02:42:56.686Z,948.73
2018-04-16T02:43:56.679Z,948.75
2018-04-16T02:44:56.671Z,948.78
2018-04-16T02:45:56.662Z,948.78
2018-04-16T02:46:56.654Z,948.82
2018-04-16T02:47:56.648Z,948.79
2018-04-16T02:48:56.640Z,948.78
2018-04-16T02:49:56.631Z,948.83
2018-04-16T02:50:56.624Z,948.88
2018-04-16T02:51:56.614Z,948.87
2018-04-16T02:52:56.607Z,948.81
2018-04-16T02:53:56.599Z,948.87
2018-04-16T02:54:56.591Z,948.87
2018-04-16T02:55:56.583Z,948.92
2018-04-16T02:56:56.573Z,948.88
2018-04-16T02:57:56.566Z,948.91
2018-04-16T02:58:56.559Z,948.88
2018-04-16T02:59:56.552Z,948.87
2018-04-16T03:00:56.543Z,948.84
2018-04-16T03:01:56.535Z,948.83
2018-04-16T03:02:56.526Z,948.85
2018-04-16T03:03:56.517Z,948.81
2018-04-16T03:04:56.508Z,948.81
2018-04-16T03:05:56.501Z,948.83
2018-04-16T03:06:56.495Z,948.84
2018-04-16T03:07:56.485Z,948.82
2018-04-16T03:08:56.478Z,948.79
2018-04-16T03:09:56.469Z,948.84
2018-04-16T03:10:56.467Z,948.85
2018-04-16T03:11:56.455Z,948.83
2018-04-16T03:12:56.448Z,948.83
2018-04-16T03:13:56.440Z,948.85
2018-04-16T03:14:56.430Z,948.88
2018-04-16T03:15:56.422Z,948.85
2018-04-16T03:16:56.416Z,948.85
2018-04-16T03:17:56.407Z,948.9
2018-04-16T03:18:56.399Z,948.89
2018-04-16T03:19:56.390Z,948.86
2018-04-16T03:20:56.383Z,948.84
2018-04-16T03:21:56.375Z,948.84
2018-04-16T03:22:56.367Z,948.82
2018-04-16T03:23:56.359Z,948.84
2018-04-16T03:24:56.352Z,948.83
2018-04-16T03:25:56.342Z,948.79
2018-04-16T03:26:56.339Z,948.84
2018-04-16T03:27:56.328Z,948.79
2018-04-16T03:28:56.320Z,948.8
2018-04-16T03:29:56.311Z,948.84
2018-04-16T03:30:56.304Z,948.84
2018-04-16T03:31:56.295Z,948.87
2018-04-16T03:32:56.288Z,948.82
2018-04-16T03:33:56.281Z,948.83
2018-04-16T03:34:56.314Z,948.87
2018-04-16T03:35:56.267Z,948.85
2018-04-16T03:36:56.256Z,948.86
2018-04-16T03:37:56.249Z,948.87
2018-04-16T03:38:56.248Z,948.93
2018-04-16T03:39:56.234Z,948.89
2018-04-16T03:40:56.223Z,948.9
2018-04-16T03:41:56.216Z,948.88
2018-04-16T03:42:56.211Z,948.9
2018-04-16T03:43:56.201Z,948.87
2018-04-16T03:44:56.192Z,948.91
2018-04-16T03:45:56.184Z,948.91
2018-04-16T03:46:56.178Z,948.92
2018-04-16T03:47:56.170Z,948.95
2018-04-16T03:48:56.162Z,948.94
2018-04-16T03:49:56.154Z,948.98
2018-04-16T03:50:56.144Z,948.97
2018-04-16T03:51:56.137Z,949
2018-04-16T03:52:56.133Z,949.07
2018-04-16T03:53:56.121Z,949.06
2018-04-16T03:54:56.114Z,949.08
2018-04-16T03:55:56.105Z,949.16
2018-04-16T03:56:56.096Z,949.15
2018-04-16T03:57:56.091Z,949.19
2018-04-16T03:58:56.081Z,949.2
2018-04-16T03:59:56.082Z,949.24
2018-04-16T04:00:56.066Z,949.25
2018-04-16T04:01:56.059Z,949.24
2018-04-16T04:02:56.049Z,949.29
2018-04-16T04:03:56.042Z,949.27
2018-04-16T04:04:56.035Z,949.29
2018-04-16T04:05:56.027Z,949.25
2018-04-16T04:06:56.018Z,949.3
2018-04-16T04:07:56.010Z,949.28
2018-04-16T04:08:56.005Z,949.3
2018-04-16T04:09:55.993Z,949.28
2018-04-16T04:10:55.986Z,949.31
2018-04-16T04:11:55.981Z,949.31
2018-04-16T04:12:55.971Z,949.31
2018-04-16T04:13:55.963Z,949.3
2018-04-16T04:14:55.956Z,949.33
2018-04-16T04:15:55.947Z,949.29
2018-04-16T04:16:55.939Z,949.32
2018-04-16T04:17:55.930Z,949.34
2018-04-16T04:18:55.924Z,949.33
2018-04-16T04:19:55.917Z,949.34
2018-04-16T04:20:55.922Z,949.33
2018-04-16T04:21:55.899Z,949.33
2018-04-16T04:22:55.904Z,949.3
2018-04-16T04:23:55.883Z,949.31
2018-04-16T04:24:55.916Z,949.29
2018-04-16T04:25:55.867Z,949.29
2018-04-16T04:26:55.865Z,949.29
2018-04-16T04:27:55.853Z,949.32
2018-04-16T04:28:55.846Z,949.33
2018-04-16T04:29:55.838Z,949.3
2018-04-16T04:30:55.828Z,949.28
2018-04-16T04:31:55.821Z,949.26
2018-04-16T04:32:55.814Z,949.27
2018-04-16T04:33:55.804Z,949.23
2018-04-16T04:34:55.798Z,949.27
2018-04-16T04:35:55.789Z,949.26
2018-04-16T04:36:55.780Z,949.26
2018-04-16T04:37:55.773Z,949.27
2018-04-16T04:38:55.764Z,949.3
2018-04-16T04:39:55.757Z,949.32
2018-04-16T04:40:55.750Z,949.33
2018-04-16T04:41:55.743Z,949.31
2018-04-16T04:42:55.732Z,949.33
2018-04-16T04:43:55.723Z,949.3
2018-04-16T04:44:55.717Z,949.35
2018-04-16T04:45:55.710Z,949.36
2018-04-16T04:46:55.701Z,949.37
2018-04-16T04:47:55.693Z,949.36
2018-04-16T04:48:55.686Z,949.33
2018-04-16T04:49:55.676Z,949.31
2018-04-16T04:50:55.668Z,949.33
2018-04-16T04:51:55.663Z,949.37
2018-04-16T04:52:55.656Z,949.36
2018-04-16T04:53:55.645Z,949.36
2018-04-16T04:54:55.637Z,949.36
2018-04-16T04:55:55.636Z,949.35
2018-04-16T04:56:55.623Z,949.38
2018-04-16T04:57:55.614Z,949.39
2018-04-16T04:58:55.603Z,949.44
2018-04-16T04:59:55.596Z,949.43
2018-04-16T05:00:55.591Z,949.39
2018-04-16T05:01:55.580Z,949.39
2018-04-16T05:02:55.572Z,949.43
2018-04-16T05:03:55.564Z,949.39
2018-04-16T05:04:55.554Z,949.42
2018-04-16T05:05:55.546Z,949.45
2018-04-16T05:06:55.548Z,949.46
2018-04-16T05:07:55.533Z,949.47
2018-04-16T05:08:55.524Z,949.48
2018-04-16T05:09:55.517Z,949.51
2018-04-16T05:10:55.508Z,949.52
2018-04-16T05:11:55.502Z,949.51
2018-04-16T05:12:55.493Z,949.49
2018-04-16T05:13:55.485Z,949.54
2018-04-16T05:14:55.479Z,949.52
2018-04-16T05:15:55.467Z,949.54
2018-04-16T05:16:55.461Z,949.59
2018-04-16T05:17:55.451Z,949.58
2018-04-16T05:18:55.445Z,949.62
2018-04-16T05:19:55.436Z,949.58
2018-04-16T05:20:55.428Z,949.56
2018-04-16T05:21:55.421Z,949.58
2018-04-16T05:22:55.411Z,949.58
2018-04-16T05:23:55.407Z,949.58
2018-04-16T05:24:55.396Z,949.62
2018-04-16T05:25:55.390Z,949.66
2018-04-16T05:26:55.380Z,949.64
2018-04-16T05:27:55.373Z,949.61
2018-04-16T05:28:55.363Z,949.68
2018-04-16T05:29:55.358Z,949.59
2018-04-16T05:30:55.349Z,949.62
2018-04-16T05:31:55.341Z,949.59
2018-04-16T05:32:55.331Z,949.61
2018-04-16T05:33:55.325Z,949.63
2018-04-16T05:34:55.317Z,949.64
2018-04-16T05:35:55.309Z,949.65
2018-04-16T05:36:55.301Z,949.6
2018-04-16T05:37:55.294Z,949.62
2018-04-16T05:38:55.285Z,949.63
2018-04-16T05:39:55.276Z,949.63
2018-04-16T05:40:55.270Z,949.6
2018-04-16T05:41:55.262Z,949.55
2018-04-16T05:42:55.253Z,949.62
2018-04-16T05:43:55.250Z,949.6
2018-04-16T05:44:55.239Z,949.63
2018-04-16T05:45:55.234Z,949.66
2018-04-16T05:46:55.223Z,949.65
2018-04-16T05:47:55.215Z,949.67
2018-04-16T05:48:55.206Z,949.71
2018-04-16T05:49:55.199Z,949.7
2018-04-16T05:50:55.195Z,949.72
2018-04-16T05:51:55.183Z,949.74
2018-04-16T05:52:55.178Z,949.75
2018-04-16T05:53:55.168Z,949.76
2018-04-16T05:54:55.160Z,949.75
2018-04-16T05:55:55.152Z,949.77
2018-04-16T05:56:55.146Z,949.78
2018-04-16T05:57:55.138Z,949.75
2018-04-16T05:58:55.129Z,949.74
2018-04-16T05:59:55.120Z,949.74
2018-04-16T06:00:55.112Z,949.79
2018-04-16T06:01:55.107Z,949.79
2018-04-16T06:02:55.101Z,949.78
2018-04-16T06:03:55.095Z,949.79
2018-04-16T06:04:55.084Z,949.79
2018-04-16T06:05:55.077Z,949.84
2018-04-16T06:06:55.066Z,949.87
2018-04-16T06:07:55.058Z,949.87
2018-04-16T06:08:55.051Z,949.91
2018-04-16T06:09:55.045Z,949.89
2018-04-16T06:10:55.038Z,949.95
2018-04-16T06:11:55.030Z,949.96
2018-04-16T06:12:55.022Z,949.96
2018-04-16T06:13:55.013Z,950.02
2018-04-16T06:14:55.006Z,949.99
2018-04-16T06:15:54.998Z,950
2018-04-16T06:16:54.992Z,950.04
2018-04-16T06:17:54.984Z,950.08
2018-04-16T06:18:54.976Z,950.07
2018-04-16T06:19:54.968Z,950.03
2018-04-16T06:20:54.961Z,950.06
2018-04-16T06:21:54.952Z,950.07
2018-04-16T06:22:54.945Z,950.05
2018-04-16T06:23:54.937Z,950.08
2018-04-16T06:24:54.931Z,950.07
2018-04-16T06:25:54.921Z,950.03
2018-04-16T06:26:54.913Z,950.08
2018-04-16T06:27:54.906Z,950.04
2018-04-16T06:28:54.901Z,950.07
2018-04-16T06:29:54.891Z,950.08
2018-04-16T06:30:54.883Z,950.01
2018-04-16T06:31:54.874Z,950.08
2018-04-16T06:32:54.872Z,950.05
2018-04-16T06:33:54.859Z,950.06
2018-04-16T06:34:54.852Z,950.1
2018-04-16T06:35:54.841Z,950.07
2018-04-16T06:36:54.878Z,950.06
2018-04-16T06:37:54.827Z,950.05
2018-04-16T06:38:54.820Z,950.1
2018-04-16T06:39:54.812Z,950.04
2018-04-16T06:40:54.804Z,950.06
2018-04-16T06:41:54.802Z,950.1
2018-04-16T06:42:54.787Z,950.09
2018-04-16T06:43:54.781Z,950.12
2018-04-16T06:44:54.774Z,950.16
2018-04-16T06:45:54.767Z,950.13
2018-04-16T06:46:54.759Z,950.2
2018-04-16T06:47:54.750Z,950.18
2018-04-16T06:48:54.743Z,950.2
2018-04-16T06:49:54.734Z,950.17
2018-04-16T06:50:54.726Z,950.18
2018-04-16T06:51:54.718Z,950.15
2018-04-16T06:52:54.711Z,950.13
2018-04-16T06:53:54.705Z,950.17
2018-04-16T06:54:54.697Z,950.16
2018-04-16T06:55:54.687Z,950.2
2018-04-16T06:56:54.681Z,950.2
2018-04-16T06:57:54.672Z,950.19
2018-04-16T06:58:54.665Z,950.18
2018-04-16T06:59:54.658Z,950.2
2018-04-16T07:00:54.652Z,950.23
2018-04-16T07:01:54.698Z,950.2
2018-04-16T07:02:54.635Z,950.22
2018-04-16T07:03:54.627Z,950.18
2018-04-16T07:04:54.633Z,950.22
2018-04-16T07:05:54.612Z,950.22
2018-04-16T07:06:54.602Z,950.21
2018-04-16T07:07:54.597Z,950.19
2018-04-16T07:08:54.585Z,950.23
2018-04-16T07:09:54.579Z,950.25
2018-04-16T07:10:54.572Z,950.27
2018-04-16T07:11:54.560Z,950.3
2018-04-16T07:12:54.551Z,950.28
2018-04-16T07:13:54.544Z,950.32
2018-04-16T07:14:54.536Z,950.34
2018-04-16T07:15:54.595Z,950.32
2018-04-16T07:16:54.519Z,950.37
2018-04-16T07:17:54.516Z,950.41
2018-04-16T07:18:54.504Z,950.4
2018-04-16T07:19:54.497Z,950.4
2018-04-16T07:20:54.489Z,950.36
2018-04-16T07:21:54.481Z,950.37
2018-04-16T07:22:54.474Z,950.39
2018-04-16T07:23:54.473Z,950.42
2018-04-16T07:24:54.457Z,950.42
2018-04-16T07:25:54.448Z,950.44
2018-04-16T07:26:54.448Z,950.43
2018-04-16T07:27:54.432Z,950.42
2018-04-16T07:28:54.426Z,950.45
2018-04-16T07:29:54.416Z,950.41
2018-04-16T07:30:54.409Z,950.4
2018-04-16T07:31:54.400Z,950.4
2018-04-16T07:32:54.392Z,950.4
2018-04-16T07:33:54.384Z,950.38
2018-04-16T07:34:54.377Z,950.37
2018-04-16T07:35:54.369Z,950.35
2018-04-16T07:36:54.361Z,950.35
2018-04-16T07:37:54.352Z,950.35
2018-04-16T07:38:54.346Z,950.35
2018-04-16T07:39:54.338Z,950.33
2018-04-16T07:40:54.334Z,950.35
2018-04-16T07:41:54.322Z,950.32
2018-04-16T07:42:54.314Z,950.31
2018-04-16T07:43:54.306Z,950.31
2018-04-16T07:44:54.300Z,950.35
2018-04-16T07:45:54.334Z,950.4
2018-04-16T07:46:54.281Z,950.36
2018-04-16T07:47:54.274Z,950.37
2018-04-16T07:48:54.268Z,950.4
2018-04-16T07:49:54.257Z,950.4
2018-04-16T07:50:54.250Z,950.39
2018-04-16T07:51:54.243Z,950.4
2018-04-16T07:52:54.235Z,950.43
2018-04-16T07:53:54.225Z,950.47
2018-04-16T07:54:54.218Z,950.46
2018-04-16T07:55:54.211Z,950.44
2018-04-16T07:56:54.203Z,950.46
2018-04-16T07:57:54.195Z,950.45
2018-04-16T07:58:54.185Z,950.47
2018-04-16T07:59:54.178Z,950.5
2018-04-16T08:00:54.170Z,950.47
2018-04-16T08:01:54.162Z,950.51
2018-04-16T08:02:54.155Z,950.51
2018-04-16T08:03:54.145Z,950.53
2018-04-16T08:04:54.137Z,950.55
2018-04-16T08:05:54.128Z,950.56
2018-04-16T08:06:54.123Z,950.49
2018-04-16T08:07:54.112Z,950.58
2018-04-16T08:08:54.104Z,950.54
2018-04-16T08:09:54.095Z,950.6
2018-04-16T08:10:54.088Z,950.6
2018-04-16T08:11:54.081Z,950.62
2018-04-16T08:12:54.077Z,950.61
2018-04-16T08:13:54.064Z,950.64
2018-04-16T08:14:54.055Z,950.62
2018-04-16T08:15:54.049Z,950.66
2018-04-16T08:16:54.040Z,950.7
2018-04-16T08:17:54.033Z,950.72
2018-04-16T08:18:54.024Z,950.71
2018-04-16T08:19:54.015Z,950.74
2018-04-16T08:20:54.014Z,950.71
2018-04-16T08:21:54.003Z,950.75
2018-04-16T08:22:53.993Z,950.73
2018-04-16T08:23:53.983Z,950.76
2018-04-16T08:24:53.979Z,950.73
2018-04-16T08:25:53.969Z,950.75
2018-04-16T08:26:53.959Z,950.76
2018-04-16T08:27:53.949Z,950.8
2018-04-16T08:28:53.946Z,950.8
2018-04-16T08:29:53.932Z,950.81
2018-04-16T08:30:53.925Z,950.79
2018-04-16T08:31:53.917Z,950.81
2018-04-16T08:32:53.909Z,950.79
2018-04-16T08:33:53.900Z,950.83
2018-04-16T08:34:53.891Z,950.8
2018-04-16T08:35:53.884Z,950.85
2018-04-16T08:36:53.876Z,950.84
2018-04-16T08:37:53.867Z,950.85
2018-04-16T08:38:53.859Z,950.89
2018-04-16T08:39:53.849Z,950.88
2018-04-16T08:40:53.840Z,950.84
2018-04-16T08:41:53.833Z,950.87
2018-04-16T08:42:53.824Z,950.88
2018-04-16T08:43:53.815Z,950.86
2018-04-16T08:44:53.808Z,950.88
2018-04-16T08:45:53.799Z,950.91
2018-04-16T08:46:53.797Z,950.89
2018-04-16T08:47:53.782Z,950.91
2018-04-16T08:48:53.774Z,950.88
2018-04-16T08:49:53.767Z,950.9
2018-04-16T08:50:53.758Z,950.91
2018-04-16T08:51:53.749Z,950.91
2018-04-16T08:52:53.759Z,950.87
2018-04-16T08:53:53.739Z,950.92
2018-04-16T08:54:53.726Z,950.92
2018-04-16T08:55:53.727Z,950.89
2018-04-16T08:56:53.708Z,950.91
2018-04-16T08:57:53.700Z,950.97
2018-04-16T08:58:53.692Z,950.98
2018-04-16T08:59:53.683Z,951.01
2018-04-16T09:00:53.676Z,950.98
2018-04-16T09:01:53.667Z,951
2018-04-16T09:02:53.657Z,951.01
2018-04-16T09:03:53.654Z,951.04
2018-04-16T09:04:53.642Z,951.03
2018-04-16T09:05:53.632Z,951.08
2018-04-16T09:06:53.625Z,951.02
2018-04-16T09:07:53.617Z,951.01
2018-04-16T09:08:53.608Z,951.07
2018-04-16T09:09:53.603Z,951.05
2018-04-16T09:10:53.595Z,951.03
2018-04-16T09:11:53.586Z,951.03
2018-04-16T09:12:53.576Z,951.1
2018-04-16T09:13:53.568Z,951.06
2018-04-16T09:14:53.563Z,951.08
2018-04-16T09:15:53.552Z,951.15
2018-04-16T09:16:53.544Z,951.14
2018-04-16T09:17:53.535Z,951.07
2018-04-16T09:18:53.528Z,951.11
2018-04-16T09:19:53.526Z,951.11
2018-04-16T09:20:53.511Z,951.1
2018-04-16T09:21:53.503Z,951.16
2018-04-16T09:22:53.535Z,951.11
2018-04-16T09:23:53.488Z,951.15
2018-04-16T09:24:53.480Z,951.12
2018-04-16T09:25:53.472Z,951.12
2018-04-16T09:26:53.465Z,951.15
2018-04-16T09:27:53.457Z,951.11
2018-04-16T09:28:53.450Z,951.14
2018-04-16T09:29:53.441Z,951.17
2018-04-16T09:30:53.434Z,951.16
2018-04-16T09:31:53.424Z,951.17
2018-04-16T09:32:53.417Z,951.14
2018-04-16T09:33:53.409Z,951.14
2018-04-16T09:34:53.407Z,951.14
2018-04-16T09:35:53.393Z,951.16
2018-04-16T09:36:53.387Z,951.16
2018-04-16T09:37:53.392Z,951.17
2018-04-16T09:38:53.369Z,951.23
2018-04-16T09:39:53.362Z,951.18
2018-04-16T09:40:53.354Z,951.15
2018-04-16T09:41:53.347Z,951.15
2018-04-16T09:42:53.338Z,951.15
2018-04-16T09:43:53.329Z,951.14
2018-04-16T09:44:53.325Z,951.16
2018-04-16T09:45:53.313Z,951.15
2018-04-16T09:46:53.305Z,951.14
2018-04-16T09:47:53.297Z,951.13
2018-04-16T09:48:53.290Z,951.17
2018-04-16T09:49:53.282Z,951.18
2018-04-16T09:50:53.275Z,951.21
2018-04-16T09:51:53.267Z,951.23
2018-04-16T09:52:53.259Z,951.23
2018-04-16T09:53:53.250Z,951.25
2018-04-16T09:54:53.242Z,951.22
2018-04-16T09:55:53.268Z,951.21
2018-04-16T09:56:53.226Z,951.22
2018-04-16T09:57:53.219Z,951.25
2018-04-16T09:58:53.211Z,951.21
2018-04-16T09:59:53.202Z,951.23
2018-04-16T10:00:53.229Z,951.21
2018-04-16T10:01:53.186Z,951.23
2018-04-16T10:02:53.178Z,951.23
2018-04-16T10:03:53.171Z,951.2
2018-04-16T10:04:53.160Z,951.23
2018-04-16T10:05:53.154Z,951.23
2018-04-16T10:06:53.146Z,951.24
2018-04-16T10:07:53.137Z,951.25
2018-04-16T10:08:53.130Z,951.23
2018-04-16T10:09:53.121Z,951.24
2018-04-16T10:10:53.114Z,951.27
2018-04-16T10:11:53.103Z,951.27
2018-04-16T10:12:53.096Z,951.29
2018-04-16T10:13:53.089Z,951.28
2018-04-16T10:14:53.080Z,951.29
2018-04-16T10:15:53.071Z,951.3
2018-04-16T10:16:53.063Z,951.33
2018-04-16T10:17:53.054Z,951.32
2018-04-16T10:18:53.054Z,951.3
2018-04-16T10:19:53.038Z,951.32
2018-04-16T10:20:53.030Z,951.32
2018-04-16T10:21:53.020Z,951.3
2018-04-16T10:22:53.011Z,951.35
2018-04-16T10:23:53.004Z,951.31
2018-04-16T10:24:52.996Z,951.36
2018-04-16T10:25:52.986Z,951.36
2018-04-16T10:26:52.978Z,951.36
2018-04-16T10:27:52.970Z,951.37
2018-04-16T10:28:52.961Z,951.41
2018-04-16T10:29:52.951Z,951.4
2018-04-16T10:30:52.943Z,951.39
2018-04-16T10:31:52.936Z,951.4
2018-04-16T10:32:52.926Z,951.37
2018-04-16T10:33:52.921Z,951.42
2018-04-16T10:34:52.909Z,951.39
2018-04-16T10:35:52.904Z,951.45
2018-04-16T10:36:52.891Z,951.45
2018-04-16T10:37:52.883Z,951.5
2018-04-16T10:38:52.876Z,951.5
2018-04-16T10:39:52.868Z,951.49
2018-04-16T10:40:52.859Z,951.52
2018-04-16T10:41:52.850Z,951.56
2018-04-16T10:42:52.844Z,951.57
2018-04-16T10:43:52.844Z,951.56
2018-04-16T10:44:52.826Z,951.55
2018-04-16T10:45:52.817Z,951.6
2018-04-16T10:46:52.809Z,951.59
2018-04-16T10:47:52.802Z,951.58
2018-04-16T10:48:52.795Z,951.6
2018-04-16T10:49:52.785Z,951.59
2018-04-16T10:50:52.776Z,951.56
2018-04-16T10:51:52.769Z,951.56
2018-04-16T10:52:52.761Z,951.6
2018-04-16T10:53:52.752Z,951.55
2018-04-16T10:54:52.748Z,951.58
2018-04-16T10:55:52.737Z,951.58
2018-04-16T10:56:52.729Z,951.55
2018-04-16T10:57:52.724Z,951.53
2018-04-16T10:58:52.721Z,951.55
2018-04-16T10:59:52.706Z,951.58
2018-04-16T11:00:52.718Z,951.53
2018-04-16T11:01:52.691Z,951.49
2018-04-16T11:02:52.683Z,951.5
2018-04-16T11:03:52.674Z,951.5
2018-04-16T11:04:52.668Z,951.51
2018-04-16T11:05:52.660Z,951.51
2018-04-16T11:06:52.652Z,951.51
2018-04-16T11:07:52.646Z,951.52
2018-04-16T11:08:52.638Z,951.54
2018-04-16T11:09:52.630Z,951.52
2018-04-16T11:10:52.622Z,951.59
2018-04-16T11:11:52.613Z,951.56
2018-04-16T11:12:52.607Z,951.58
2018-04-16T11:13:52.605Z,951.55
2018-04-16T11:14:52.593Z,951.58
2018-04-16T11:15:52.583Z,951.63
2018-04-16T11:16:52.578Z,951.65
2018-04-16T11:17:52.570Z,951.58
2018-04-16T11:18:52.561Z,951.61
2018-04-16T11:19:52.554Z,951.62
2018-04-16T11:20:52.546Z,951.68
2018-04-16T11:21:52.538Z,951.67
2018-04-16T11:22:52.532Z,951.69
2018-04-16T11:23:52.526Z,951.67
2018-04-16T11:24:52.517Z,951.7
2018-04-16T11:25:52.509Z,951.76
2018-04-16T11:26:52.502Z,951.77
2018-04-16T11:27:52.495Z,951.76
2018-04-16T11:28:52.488Z,951.75
2018-04-16T11:29:52.480Z,951.79
2018-04-16T11:30:52.474Z,951.78
2018-04-16T11:31:52.464Z,951.81
2018-04-16T11:32:52.457Z,951.84
2018-04-16T11:33:52.451Z,951.81
2018-04-16T11:34:52.445Z,951.84
2018-04-16T11:35:52.434Z,951.88
2018-04-16T11:36:52.427Z,951.89
2018-04-16T11:37:52.421Z,951.89
2018-04-16T11:38:52.415Z,951.92
2018-04-16T11:39:52.406Z,951.89
2018-04-16T11:40:52.399Z,951.9
2018-04-16T11:41:52.391Z,951.91
2018-04-16T11:42:52.383Z,951.93
2018-04-16T11:43:52.375Z,951.91
2018-04-16T11:44:52.370Z,951.96
2018-04-16T11:45:52.361Z,951.98
2018-04-16T11:46:52.352Z,951.96
2018-04-16T11:47:52.346Z,951.99
2018-04-16T11:48:52.338Z,951.96
2018-04-16T11:49:52.332Z,951.94
2018-04-16T11:50:52.324Z,951.96
2018-04-16T11:51:52.317Z,951.96
2018-04-16T11:52:52.308Z,951.96
2018-04-16T11:53:52.300Z,951.98
2018-04-16T11:54:52.293Z,951.99
2018-04-16T11:55:52.287Z,951.99
2018-04-16T11:56:52.279Z,951.98
2018-04-16T11:57:52.272Z,952.02
2018-04-16T11:58:52.271Z,952.05
2018-04-16T11:59:52.256Z,952.04
2018-04-16T12:00:52.251Z,952.09
2018-04-16T12:01:52.242Z,952.11
2018-04-16T12:02:52.236Z,952.09
2018-04-16T12:03:52.228Z,952.15
2018-04-16T12:04:52.221Z,952.17
2018-04-16T12:05:52.212Z,952.21
2018-04-16T12:06:52.205Z,952.21
2018-04-16T12:07:52.200Z,952.28
2018-04-16T12:08:52.229Z,952.27
2018-04-16T12:09:52.184Z,952.32
2018-04-16T12:10:52.176Z,952.31
2018-04-16T12:11:52.170Z,952.35
2018-04-16T12:12:52.162Z,952.4
2018-04-16T12:13:52.158Z,952.41
2018-04-16T12:14:52.149Z,952.41
2018-04-16T12:15:52.141Z,952.41
2018-04-16T12:16:52.136Z,952.39
2018-04-16T12:17:52.135Z,952.44
2018-04-16T12:18:52.119Z,952.44
2018-04-16T12:19:52.112Z,952.42
2018-04-16T12:20:52.106Z,952.44
2018-04-16T12:21:52.099Z,952.44
2018-04-16T12:22:52.092Z,952.44
2018-04-16T12:23:52.085Z,952.45
2018-04-16T12:24:52.077Z,952.45
2018-04-16T12:25:52.075Z,952.43
2018-04-16T12:26:52.065Z,952.48
2018-04-16T12:27:52.090Z,952.45
2018-04-16T12:28:52.048Z,952.45
2018-04-16T12:29:52.045Z,952.47
2018-04-16T12:30:52.035Z,952.42
2018-04-16T12:31:52.026Z,952.46